sensor_id;sensor_type;location;lat;lon;timestamp;temperature;humidity
9371;DHT22;4725;48.384;8.984;2023-02-26T00:01:23;-1.80;99.90
9371;DHT22;4725;48.384;8.984;2023-02-26T00:03:51;-1.80;99.90
9371;DHT22;4725;48.384;8.984;2023-02-26T00:06:19;-1.80;99.90
9371;DHT22;4725;48.384;8.984;2023-02-26T00:08:47;-1.90;99.90
9371;DHT22;4725;48.384;8.984;2023-02-26T00:11:15;-2.00;99.90
9371;DHT22;4725;48.384;8.984;2023-02-26T00:13:43;-1.00;99.90
9371;DHT22;4725;48.384;8.984;2023-02-26T00:16:16;-2.00;99.90
9371;DHT22;4725;48.384;8.984;2023-02-26T00:18:46;-2.10;99.90
9371;DHT22;4725;48.384;8.984;2023-02-26T00:21:15;-2.10;99.90
9371;DHT22;4725;48.384;8.984;2023-02-26T00:23:42;-2.10;99.90
9371;DHT22;4725;48.384;8.984;2023-02-26T00:26:11;-2.10;99.90
9371;DHT22;4725;48.384;8.984;2023-02-26T00:28:38;-2.20;99.90
9371;DHT22;4725;48.384;8.984;2023-02-26T00:31:06;-2.30;99.90
9371;DHT22;4725;48.384;8.984;2023-02-26T00:33:34;-2.30;99.90
9371;DHT22;4725;48.384;8.984;2023-02-26T00:36:12;-2.30;99.90
9371;DHT22;4725;48.384;8.984;2023-02-26T00:38:42;-2.30;99.90
9371;DHT22;4725;48.384;8.984;2023-02-26T00:41:12;-2.30;99.90
9371;DHT22;4725;48.384;8.984;2023-02-26T00:43:40;-2.30;99.90
9371;DHT22;4725;48.384;8.984;2023-02-26T00:46:18;-2.30;99.90
9371;DHT22;4725;48.384;8.984;2023-02-26T00:48:54;-2.30;99.90
9371;DHT22;4725;48.384;8.984;2023-02-26T00:51:29;-2.30;99.90
9371;DHT22;4725;48.384;8.984;2023-02-26T00:54:03;-2.30;99.90
9371;DHT22;4725;48.384;8.984;2023-02-26T00:56:32;-2.30;99.90
9371;DHT22;4725;48.384;8.984;2023-02-26T00:58:58;-2.20;99.90
9371;DHT22;4725;48.384;8.984;2023-02-26T01:01:25;-2.10;99.90
9371;DHT22;4725;48.384;8.984;2023-02-26T01:03:53;-2.10;99.90
9371;DHT22;4725;48.384;8.984;2023-02-26T01:06:21;-2.00;99.90
9371;DHT22;4725;48.384;8.984;2023-02-26T01:08:56;-2.00;99.90
9371;DHT22;4725;48.384;8.984;2023-02-26T01:11:25;-1.90;99.90
9371;DHT22;4725;48.384;8.984;2023-02-26T01:13:54;-1.90;99.90
9371;DHT22;4725;48.384;8.984;2023-02-26T01:16:24;-1.90;99.90
9371;DHT22;4725;48.384;8.984;2023-02-26T01:18:57;-1.90;99.90
9371;DHT22;4725;48.384;8.984;2023-02-26T01:21:30;-1.70;99.90
9371;DHT22;4725;48.384;8.984;2023-02-26T01:24:00;-1.70;99.90
9371;DHT22;4725;48.384;8.984;2023-02-26T01:26:28;-1.70;99.90
9371;DHT22;4725;48.384;8.984;2023-02-26T01:28:57;-1.70;99.90
9371;DHT22;4725;48.384;8.984;2023-02-26T01:31:37;-1.70;99.90
9371;DHT22;4725;48.384;8.984;2023-02-26T01:34:09;-1.70;99.90
9371;DHT22;4725;48.384;8.984;2023-02-26T01:36:41;-1.80;99.90
9371;DHT22;4725;48.384;8.984;2023-02-26T01:39:15;-1.90;99.90
9371;DHT22;4725;48.384;8.984;2023-02-26T01:41:47;-2.00;99.90
9371;DHT22;4725;48.384;8.984;2023-02-26T01:44:22;-2.10;99.90
9371;DHT22;4725;48.384;8.984;2023-02-26T01:47:10;-2.10;99.90
9371;DHT22;4725;48.384;8.984;2023-02-26T01:49:40;-2.10;99.90
9371;DHT22;4725;48.384;8.984;2023-02-26T01:55:09;-2.10;99.90
9371;DHT22;4725;48.384;8.984;2023-02-26T02:00:06;-2.00;99.90
9371;DHT22;4725;48.384;8.984;2023-02-26T02:02:34;-2.00;99.90
9371;DHT22;4725;48.384;8.984;2023-02-26T02:05:03;-2.00;99.90
9371;DHT22;4725;48.384;8.984;2023-02-26T02:07:30;-2.00;99.90
9371;DHT22;4725;48.384;8.984;2023-02-26T02:09:57;-2.00;99.90
9371;DHT22;4725;48.384;8.984;2023-02-26T02:12:29;-2.10;99.90
9371;DHT22;4725;48.384;8.984;2023-02-26T02:15:10;-2.10;99.90
9371;DHT22;4725;48.384;8.984;2023-02-26T02:17:42;-2.20;99.90
9371;DHT22;4725;48.384;8.984;2023-02-26T02:20:31;-2.20;99.90
9371;DHT22;4725;48.384;8.984;2023-02-26T02:23:10;-2.20;99.90
9371;DHT22;4725;48.384;8.984;2023-02-26T02:25:57;-2.20;99.90
9371;DHT22;4725;48.384;8.984;2023-02-26T02:28:39;-2.20;99.90
9371;DHT22;4725;48.384;8.984;2023-02-26T02:31:11;-2.20;99.90
9371;DHT22;4725;48.384;8.984;2023-02-26T02:33:43;-2.30;99.90
9371;DHT22;4725;48.384;8.984;2023-02-26T02:36:15;-2.20;99.90
9371;DHT22;4725;48.384;8.984;2023-02-26T02:38:47;-2.20;99.90
9371;DHT22;4725;48.384;8.984;2023-02-26T02:41:18;-2.30;99.90
9371;DHT22;4725;48.384;8.984;2023-02-26T02:43:48;-2.20;99.90
9371;DHT22;4725;48.384;8.984;2023-02-26T02:46:20;-2.20;99.90
9371;DHT22;4725;48.384;8.984;2023-02-26T02:48:51;-2.20;99.90
9371;DHT22;4725;48.384;8.984;2023-02-26T02:51:24;-2.20;99.90
9371;DHT22;4725;48.384;8.984;2023-02-26T02:53:54;-2.20;99.90
9371;DHT22;4725;48.384;8.984;2023-02-26T02:56:28;-2.20;99.90
9371;DHT22;4725;48.384;8.984;2023-02-26T02:59:05;-2.20;99.90
9371;DHT22;4725;48.384;8.984;2023-02-26T03:01:38;-2.20;99.90
9371;DHT22;4725;48.384;8.984;2023-02-26T03:04:08;-2.20;99.90
9371;DHT22;4725;48.384;8.984;2023-02-26T03:06:36;-2.20;99.90
9371;DHT22;4725;48.384;8.984;2023-02-26T03:09:04;-2.20;99.90
9371;DHT22;4725;48.384;8.984;2023-02-26T03:11:32;-2.30;99.90
9371;DHT22;4725;48.384;8.984;2023-02-26T03:13:59;-2.30;99.90
9371;DHT22;4725;48.384;8.984;2023-02-26T03:16:48;-2.30;99.90
9371;DHT22;4725;48.384;8.984;2023-02-26T03:19:21;-2.30;99.90
9371;DHT22;4725;48.384;8.984;2023-02-26T03:21:57;-2.30;99.90
9371;DHT22;4725;48.384;8.984;2023-02-26T03:24:30;-2.30;99.90
9371;DHT22;4725;48.384;8.984;2023-02-26T03:27:00;-2.30;99.90
9371;DHT22;4725;48.384;8.984;2023-02-26T03:29:33;-2.30;99.90
9371;DHT22;4725;48.384;8.984;2023-02-26T03:32:08;-2.30;99.90
9371;DHT22;4725;48.384;8.984;2023-02-26T03:34:40;-2.40;99.90
9371;DHT22;4725;48.384;8.984;2023-02-26T03:37:16;-2.40;99.90
9371;DHT22;4725;48.384;8.984;2023-02-26T03:39:46;-2.40;99.90
9371;DHT22;4725;48.384;8.984;2023-02-26T03:42:17;-2.40;99.90
9371;DHT22;4725;48.384;8.984;2023-02-26T03:44:50;-2.50;99.90
9371;DHT22;4725;48.384;8.984;2023-02-26T03:47:20;-2.50;99.90
9371;DHT22;4725;48.384;8.984;2023-02-26T03:49:51;-2.50;99.90
9371;DHT22;4725;48.384;8.984;2023-02-26T03:52:20;-2.60;99.90
9371;DHT22;4725;48.384;8.984;2023-02-26T03:54:53;-2.50;99.90
9371;DHT22;4725;48.384;8.984;2023-02-26T03:57:21;-2.60;99.90
9371;DHT22;4725;48.384;8.984;2023-02-26T03:59:48;-2.70;99.90
9371;DHT22;4725;48.384;8.984;2023-02-26T04:02:17;-2.80;99.90
9371;DHT22;4725;48.384;8.984;2023-02-26T04:04:48;-2.90;99.90
9371;DHT22;4725;48.384;8.984;2023-02-26T04:07:17;-2.90;99.90
9371;DHT22;4725;48.384;8.984;2023-02-26T04:09:47;-3.10;99.90
9371;DHT22;4725;48.384;8.984;2023-02-26T04:12:15;-3.20;99.90
9371;DHT22;4725;48.384;8.984;2023-02-26T04:14:46;-3.30;99.90
9371;DHT22;4725;48.384;8.984;2023-02-26T04:17:12;-3.30;99.90
9371;DHT22;4725;48.384;8.984;2023-02-26T04:19:39;-3.40;99.90
9371;DHT22;4725;48.384;8.984;2023-02-26T04:22:08;-3.50;99.90
9371;DHT22;4725;48.384;8.984;2023-02-26T04:24:36;-3.60;99.90
9371;DHT22;4725;48.384;8.984;2023-02-26T04:27:04;-3.70;99.90
9371;DHT22;4725;48.384;8.984;2023-02-26T04:29:32;-3.80;99.90
9371;DHT22;4725;48.384;8.984;2023-02-26T04:32:00;-3.80;99.90
9371;DHT22;4725;48.384;8.984;2023-02-26T04:34:28;-3.90;99.90
9371;DHT22;4725;48.384;8.984;2023-02-26T04:41:58;-4.10;99.90
9371;DHT22;4725;48.384;8.984;2023-02-26T04:44:25;-4.10;99.90
9371;DHT22;4725;48.384;8.984;2023-02-26T04:46:52;-4.10;99.90
9371;DHT22;4725;48.384;8.984;2023-02-26T04:49:19;-4.20;99.90
9371;DHT22;4725;48.384;8.984;2023-02-26T04:51:46;-4.30;99.90
9371;DHT22;4725;48.384;8.984;2023-02-26T04:54:13;-4.30;99.90
9371;DHT22;4725;48.384;8.984;2023-02-26T04:56:41;-4.30;99.90
9371;DHT22;4725;48.384;8.984;2023-02-26T04:59:08;-4.30;99.90
9371;DHT22;4725;48.384;8.984;2023-02-26T05:01:35;-4.40;99.90
9371;DHT22;4725;48.384;8.984;2023-02-26T05:06:29;-4.50;99.90
9371;DHT22;4725;48.384;8.984;2023-02-26T05:08:56;-4.60;99.90
9371;DHT22;4725;48.384;8.984;2023-02-26T05:11:23;-4.70;99.90
9371;DHT22;4725;48.384;8.984;2023-02-26T05:13:51;-4.70;99.90
9371;DHT22;4725;48.384;8.984;2023-02-26T05:18:46;-4.60;99.90
9371;DHT22;4725;48.384;8.984;2023-02-26T05:21:14;-4.60;99.90
9371;DHT22;4725;48.384;8.984;2023-02-26T05:23:41;-4.60;99.90
9371;DHT22;4725;48.384;8.984;2023-02-26T05:26:08;-4.60;99.90
9371;DHT22;4725;48.384;8.984;2023-02-26T05:28:35;-4.50;99.90
9371;DHT22;4725;48.384;8.984;2023-02-26T05:31:04;-4.40;99.90
9371;DHT22;4725;48.384;8.984;2023-02-26T05:33:31;-4.30;99.90
9371;DHT22;4725;48.384;8.984;2023-02-26T05:35:58;-4.30;99.90
9371;DHT22;4725;48.384;8.984;2023-02-26T05:38:25;-4.10;99.90
9371;DHT22;4725;48.384;8.984;2023-02-26T05:40:55;-4.00;99.90
9371;DHT22;4725;48.384;8.984;2023-02-26T05:43:23;-4.00;99.90
9371;DHT22;4725;48.384;8.984;2023-02-26T05:45:50;-3.90;99.90
9371;DHT22;4725;48.384;8.984;2023-02-26T05:48:18;-3.90;99.90
9371;DHT22;4725;48.384;8.984;2023-02-26T05:50:46;-3.80;99.90
9371;DHT22;4725;48.384;8.984;2023-02-26T05:53:14;-3.80;99.90
9371;DHT22;4725;48.384;8.984;2023-02-26T05:55:41;-3.70;99.90
9371;DHT22;4725;48.384;8.984;2023-02-26T05:58:08;-3.70;99.90
9371;DHT22;4725;48.384;8.984;2023-02-26T06:00:35;-3.60;99.90
9371;DHT22;4725;48.384;8.984;2023-02-26T06:03:01;-3.60;99.90
9371;DHT22;4725;48.384;8.984;2023-02-26T06:05:30;-3.60;99.90
9371;DHT22;4725;48.384;8.984;2023-02-26T06:07:57;-2.30;99.90
9371;DHT22;4725;48.384;8.984;2023-02-26T06:10:24;-3.50;99.90
9371;DHT22;4725;48.384;8.984;2023-02-26T06:15:18;-3.50;99.90
9371;DHT22;4725;48.384;8.984;2023-02-26T06:17:45;-3.40;99.90
9371;DHT22;4725;48.384;8.984;2023-02-26T06:20:12;-3.40;99.90
9371;DHT22;4725;48.384;8.984;2023-02-26T06:22:40;-3.40;99.90
9371;DHT22;4725;48.384;8.984;2023-02-26T06:25:08;-3.30;99.90
9371;DHT22;4725;48.384;8.984;2023-02-26T06:27:35;-3.40;99.90
9371;DHT22;4725;48.384;8.984;2023-02-26T06:30:02;-3.30;99.90
9371;DHT22;4725;48.384;8.984;2023-02-26T06:32:29;-3.30;99.90
9371;DHT22;4725;48.384;8.984;2023-02-26T06:34:56;-3.30;99.90
9371;DHT22;4725;48.384;8.984;2023-02-26T06:39:51;-3.20;99.90
9371;DHT22;4725;48.384;8.984;2023-02-26T06:44:46;-3.20;99.90
9371;DHT22;4725;48.384;8.984;2023-02-26T06:47:13;-3.20;99.90
9371;DHT22;4725;48.384;8.984;2023-02-26T06:49:40;-2.70;99.90
9371;DHT22;4725;48.384;8.984;2023-02-26T06:52:06;-3.10;99.90
9371;DHT22;4725;48.384;8.984;2023-02-26T06:54:33;-3.00;99.90
9371;DHT22;4725;48.384;8.984;2023-02-26T06:57:02;-3.10;99.90
9371;DHT22;4725;48.384;8.984;2023-02-26T07:01:56;-2.90;99.90
9371;DHT22;4725;48.384;8.984;2023-02-26T07:04:23;-2.90;99.90
9371;DHT22;4725;48.384;8.984;2023-02-26T07:06:49;-2.90;99.90
9371;DHT22;4725;48.384;8.984;2023-02-26T07:09:16;-2.90;99.90
9371;DHT22;4725;48.384;8.984;2023-02-26T07:11:45;-3.00;99.90
9371;DHT22;4725;48.384;8.984;2023-02-26T07:14:13;-3.00;99.90
9371;DHT22;4725;48.384;8.984;2023-02-26T07:16:40;-3.00;99.90
9371;DHT22;4725;48.384;8.984;2023-02-26T07:19:07;-2.90;99.90
9371;DHT22;4725;48.384;8.984;2023-02-26T07:26:28;-2.80;99.90
9371;DHT22;4725;48.384;8.984;2023-02-26T07:28:55;-2.70;99.90
9371;DHT22;4725;48.384;8.984;2023-02-26T07:33:50;-2.20;99.90
9371;DHT22;4725;48.384;8.984;2023-02-26T07:36:17;-2.10;99.90
9371;DHT22;4725;48.384;8.984;2023-02-26T07:38:44;-1.80;99.90
9371;DHT22;4725;48.384;8.984;2023-02-26T07:43:38;-1.70;99.90
9371;DHT22;4725;48.384;8.984;2023-02-26T07:46:05;-1.70;99.90
9371;DHT22;4725;48.384;8.984;2023-02-26T07:48:33;-1.80;99.90
9371;DHT22;4725;48.384;8.984;2023-02-26T07:51:02;-1.80;99.90
9371;DHT22;4725;48.384;8.984;2023-02-26T07:53:29;-1.80;99.90
9371;DHT22;4725;48.384;8.984;2023-02-26T07:55:56;-1.90;99.90
9371;DHT22;4725;48.384;8.984;2023-02-26T07:58:22;-1.90;99.90
9371;DHT22;4725;48.384;8.984;2023-02-26T08:00:49;-1.90;99.90
9371;DHT22;4725;48.384;8.984;2023-02-26T08:03:17;-2.00;99.90
9371;DHT22;4725;48.384;8.984;2023-02-26T08:08:13;-2.00;99.90
9371;DHT22;4725;48.384;8.984;2023-02-26T08:10:40;-2.30;99.90
9371;DHT22;4725;48.384;8.984;2023-02-26T08:15:34;-2.20;99.90
9371;DHT22;4725;48.384;8.984;2023-02-26T08:18:01;0.70;99.90
9371;DHT22;4725;48.384;8.984;2023-02-26T08:20:28;-2.40;99.90
9371;DHT22;4725;48.384;8.984;2023-02-26T08:25:24;-2.30;99.90
9371;DHT22;4725;48.384;8.984;2023-02-26T08:30:18;-2.00;99.90
9371;DHT22;4725;48.384;8.984;2023-02-26T08:32:45;-2.00;99.90
9371;DHT22;4725;48.384;8.984;2023-02-26T08:35:14;-1.90;99.90
9371;DHT22;4725;48.384;8.984;2023-02-26T08:37:41;-1.70;99.90
9371;DHT22;4725;48.384;8.984;2023-02-26T08:40:11;-1.60;99.90
9371;DHT22;4725;48.384;8.984;2023-02-26T08:42:38;-1.60;99.90
9371;DHT22;4725;48.384;8.984;2023-02-26T08:45:06;-1.60;99.90
9371;DHT22;4725;48.384;8.984;2023-02-26T08:47:33;-1.50;99.90
9371;DHT22;4725;48.384;8.984;2023-02-26T08:52:27;-1.10;99.90
9371;DHT22;4725;48.384;8.984;2023-02-26T08:57:23;-1.10;99.90
9371;DHT22;4725;48.384;8.984;2023-02-26T09:02:17;-1.40;99.90
9371;DHT22;4725;48.384;8.984;2023-02-26T09:04:44;-1.30;99.90
9371;DHT22;4725;48.384;8.984;2023-02-26T09:07:11;-1.40;99.90
9371;DHT22;4725;48.384;8.984;2023-02-26T09:09:38;-1.40;99.90
9371;DHT22;4725;48.384;8.984;2023-02-26T09:12:05;-1.50;99.90
9371;DHT22;4725;48.384;8.984;2023-02-26T09:14:34;-1.60;99.90
9371;DHT22;4725;48.384;8.984;2023-02-26T09:17:01;-1.60;99.90
9371;DHT22;4725;48.384;8.984;2023-02-26T09:19:28;-1.70;99.90
9371;DHT22;4725;48.384;8.984;2023-02-26T09:21:54;-1.60;99.90
9371;DHT22;4725;48.384;8.984;2023-02-26T09:26:49;-1.30;99.90
9371;DHT22;4725;48.384;8.984;2023-02-26T09:29:16;-1.30;99.90
9371;DHT22;4725;48.384;8.984;2023-02-26T09:31:44;-1.40;99.90
9371;DHT22;4725;48.384;8.984;2023-02-26T09:34:11;-1.20;99.90
9371;DHT22;4725;48.384;8.984;2023-02-26T09:36:38;-0.80;99.90
9371;DHT22;4725;48.384;8.984;2023-02-26T09:39:05;-0.70;99.90
9371;DHT22;4725;48.384;8.984;2023-02-26T09:41:36;-0.60;99.90
9371;DHT22;4725;48.384;8.984;2023-02-26T09:44:12;-0.50;99.90
9371;DHT22;4725;48.384;8.984;2023-02-26T09:46:52;0.10;99.90
9371;DHT22;4725;48.384;8.984;2023-02-26T09:49:34;0.70;99.90
9371;DHT22;4725;48.384;8.984;2023-02-26T09:52:11;0.80;99.90
9371;DHT22;4725;48.384;8.984;2023-02-26T09:54:45;1.10;99.90
9371;DHT22;4725;48.384;8.984;2023-02-26T09:57:26;0.70;99.90
9371;DHT22;4725;48.384;8.984;2023-02-26T09:59:55;0.70;99.90
9371;DHT22;4725;48.384;8.984;2023-02-26T10:02:36;1.60;99.90
9371;DHT22;4725;48.384;8.984;2023-02-26T10:05:15;-0.20;99.90
9371;DHT22;4725;48.384;8.984;2023-02-26T10:07:47;-0.40;99.90
9371;DHT22;4725;48.384;8.984;2023-02-26T10:10:23;-0.30;99.90
9371;DHT22;4725;48.384;8.984;2023-02-26T10:12:53;-0.30;99.90
9371;DHT22;4725;48.384;8.984;2023-02-26T10:15:22;-0.20;99.90
9371;DHT22;4725;48.384;8.984;2023-02-26T10:18:09;-0.20;99.90
9371;DHT22;4725;48.384;8.984;2023-02-26T10:20:42;-0.10;99.90
9371;DHT22;4725;48.384;8.984;2023-02-26T10:23:17;-0.10;99.90
9371;DHT22;4725;48.384;8.984;2023-02-26T10:25:48;0.00;99.90
9371;DHT22;4725;48.384;8.984;2023-02-26T10:28:43;0.10;99.90
9371;DHT22;4725;48.384;8.984;2023-02-26T10:31:21;1.00;99.90
9371;DHT22;4725;48.384;8.984;2023-02-26T10:34:00;1.00;99.90
9371;DHT22;4725;48.384;8.984;2023-02-26T10:36:39;0.90;99.90
9371;DHT22;4725;48.384;8.984;2023-02-26T10:39:16;0.70;99.90
9371;DHT22;4725;48.384;8.984;2023-02-26T10:41:46;0.30;99.90
9371;DHT22;4725;48.384;8.984;2023-02-26T10:44:17;0.10;99.90
9371;DHT22;4725;48.384;8.984;2023-02-26T10:46:57;0.20;99.90
9371;DHT22;4725;48.384;8.984;2023-02-26T10:49:41;0.00;99.90
9371;DHT22;4725;48.384;8.984;2023-02-26T10:52:13;0.00;99.90
9371;DHT22;4725;48.384;8.984;2023-02-26T10:54:48;0.10;99.90
9371;DHT22;4725;48.384;8.984;2023-02-26T10:57:23;0.30;99.90
9371;DHT22;4725;48.384;8.984;2023-02-26T10:59:50;0.90;99.90
9371;DHT22;4725;48.384;8.984;2023-02-26T11:02:31;1.60;99.90
9371;DHT22;4725;48.384;8.984;2023-02-26T11:05:01;1.70;99.90
9371;DHT22;4725;48.384;8.984;2023-02-26T11:07:30;1.30;99.90
9371;DHT22;4725;48.384;8.984;2023-02-26T11:09:57;1.10;99.90
9371;DHT22;4725;48.384;8.984;2023-02-26T11:12:24;0.80;99.90
9371;DHT22;4725;48.384;8.984;2023-02-26T11:14:52;0.80;99.90
9371;DHT22;4725;48.384;8.984;2023-02-26T11:17:21;0.80;99.90
9371;DHT22;4725;48.384;8.984;2023-02-26T11:19:56;0.50;99.90
9371;DHT22;4725;48.384;8.984;2023-02-26T11:22:29;-0.30;99.90
9371;DHT22;4725;48.384;8.984;2023-02-26T11:24:58;-0.30;99.90
9371;DHT22;4725;48.384;8.984;2023-02-26T11:27:29;-0.40;99.90
9371;DHT22;4725;48.384;8.984;2023-02-26T11:29:57;-0.40;99.90
9371;DHT22;4725;48.384;8.984;2023-02-26T11:32:30;-0.50;99.90
9371;DHT22;4725;48.384;8.984;2023-02-26T11:34:57;-0.40;99.90
9371;DHT22;4725;48.384;8.984;2023-02-26T11:37:29;-0.70;99.90
9371;DHT22;4725;48.384;8.984;2023-02-26T11:40:13;-0.70;99.90
9371;DHT22;4725;48.384;8.984;2023-02-26T11:42:43;-0.60;99.90
9371;DHT22;4725;48.384;8.984;2023-02-26T11:45:16;-0.50;99.90
9371;DHT22;4725;48.384;8.984;2023-02-26T11:47:44;-0.50;99.90
9371;DHT22;4725;48.384;8.984;2023-02-26T11:50:14;-0.50;99.90
9371;DHT22;4725;48.384;8.984;2023-02-26T11:52:45;-0.50;99.90
9371;DHT22;4725;48.384;8.984;2023-02-26T11:55:19;-0.50;99.90
9371;DHT22;4725;48.384;8.984;2023-02-26T11:57:50;-0.40;99.90
9371;DHT22;4725;48.384;8.984;2023-02-26T12:00:22;-0.40;99.90
9371;DHT22;4725;48.384;8.984;2023-02-26T12:02:50;-0.40;99.90
9371;DHT22;4725;48.384;8.984;2023-02-26T12:05:17;-0.30;99.90
9371;DHT22;4725;48.384;8.984;2023-02-26T12:07:45;-0.20;99.90
9371;DHT22;4725;48.384;8.984;2023-02-26T12:10:16;-0.20;99.90
9371;DHT22;4725;48.384;8.984;2023-02-26T12:12:57;-0.20;99.90
9371;DHT22;4725;48.384;8.984;2023-02-26T12:15:31;-0.20;99.90
9371;DHT22;4725;48.384;8.984;2023-02-26T12:18:18;-0.10;99.90
9371;DHT22;4725;48.384;8.984;2023-02-26T12:20:55;-0.10;99.90
9371;DHT22;4725;48.384;8.984;2023-02-26T12:26:27;0.00;99.90
9371;DHT22;4725;48.384;8.984;2023-02-26T12:29:14;0.10;99.90
9371;DHT22;4725;48.384;8.984;2023-02-26T12:31:56;0.10;99.90
9371;DHT22;4725;48.384;8.984;2023-02-26T12:34:42;0.00;99.90
9371;DHT22;4725;48.384;8.984;2023-02-26T12:37:27;0.10;99.90
9371;DHT22;4725;48.384;8.984;2023-02-26T12:40:10;-0.10;99.90
9371;DHT22;4725;48.384;8.984;2023-02-26T12:42:50;-0.20;99.90
9371;DHT22;4725;48.384;8.984;2023-02-26T12:45:38;-0.20;99.90
9371;DHT22;4725;48.384;8.984;2023-02-26T12:48:41;-0.30;99.90
9371;DHT22;4725;48.384;8.984;2023-02-26T12:51:18;-0.40;99.90
9371;DHT22;4725;48.384;8.984;2023-02-26T12:53:58;-0.50;99.90
9371;DHT22;4725;48.384;8.984;2023-02-26T12:56:52;-0.50;99.90
9371;DHT22;4725;48.384;8.984;2023-02-26T12:59:49;-0.70;99.90
9371;DHT22;4725;48.384;8.984;2023-02-26T13:08:46;-0.20;99.90
9371;DHT22;4725;48.384;8.984;2023-02-26T13:11:20;-0.50;99.90
9371;DHT22;4725;48.384;8.984;2023-02-26T13:14:03;-0.70;99.90
9371;DHT22;4725;48.384;8.984;2023-02-26T13:16:40;0.40;99.90
9371;DHT22;4725;48.384;8.984;2023-02-26T13:19:19;0.30;99.90
9371;DHT22;4725;48.384;8.984;2023-02-26T13:21:52;1.10;99.90
9371;DHT22;4725;48.384;8.984;2023-02-26T13:24:25;1.30;99.90
9371;DHT22;4725;48.384;8.984;2023-02-26T13:26:54;1.30;99.90
9371;DHT22;4725;48.384;8.984;2023-02-26T13:29:26;1.50;99.90
9371;DHT22;4725;48.384;8.984;2023-02-26T13:31:57;1.40;99.90
9371;DHT22;4725;48.384;8.984;2023-02-26T13:34:32;1.60;99.90
9371;DHT22;4725;48.384;8.984;2023-02-26T13:37:01;2.00;99.90
9371;DHT22;4725;48.384;8.984;2023-02-26T13:39:37;2.00;99.90
9371;DHT22;4725;48.384;8.984;2023-02-26T13:42:13;2.50;99.90
9371;DHT22;4725;48.384;8.984;2023-02-26T13:44:53;2.30;99.90
9371;DHT22;4725;48.384;8.984;2023-02-26T13:47:33;2.30;99.90
9371;DHT22;4725;48.384;8.984;2023-02-26T13:50:15;2.40;99.90
9371;DHT22;4725;48.384;8.984;2023-02-26T13:52:53;2.00;99.90
9371;DHT22;4725;48.384;8.984;2023-02-26T13:55:41;1.90;99.90
9371;DHT22;4725;48.384;8.984;2023-02-26T14:01:05;0.70;99.90
9371;DHT22;4725;48.384;8.984;2023-02-26T14:03:33;0.60;99.90
9371;DHT22;4725;48.384;8.984;2023-02-26T14:06:19;0.60;99.90
9371;DHT22;4725;48.384;8.984;2023-02-26T14:08:49;0.40;99.90
9371;DHT22;4725;48.384;8.984;2023-02-26T14:11:45;0.40;99.90
9371;DHT22;4725;48.384;8.984;2023-02-26T14:14:25;0.30;99.90
9371;DHT22;4725;48.384;8.984;2023-02-26T14:17:36;0.40;99.90
9371;DHT22;4725;48.384;8.984;2023-02-26T14:20:16;0.30;99.90
9371;DHT22;4725;48.384;8.984;2023-02-26T14:22:47;0.20;99.90
9371;DHT22;4725;48.384;8.984;2023-02-26T14:25:18;0.10;99.90
9371;DHT22;4725;48.384;8.984;2023-02-26T14:27:48;0.10;99.90
9371;DHT22;4725;48.384;8.984;2023-02-26T14:30:24;-0.20;99.90
9371;DHT22;4725;48.384;8.984;2023-02-26T14:33:06;-0.20;99.90
9371;DHT22;4725;48.384;8.984;2023-02-26T14:35:39;-0.30;99.90
9371;DHT22;4725;48.384;8.984;2023-02-26T14:38:11;-0.40;99.90
9371;DHT22;4725;48.384;8.984;2023-02-26T14:40:41;-0.20;99.90
9371;DHT22;4725;48.384;8.984;2023-02-26T14:43:14;-0.20;99.90
9371;DHT22;4725;48.384;8.984;2023-02-26T14:45:42;0.00;99.90
9371;DHT22;4725;48.384;8.984;2023-02-26T14:48:14;0.30;99.90
9371;DHT22;4725;48.384;8.984;2023-02-26T14:50:49;0.40;99.90
9371;DHT22;4725;48.384;8.984;2023-02-26T14:53:41;0.40;99.90
9371;DHT22;4725;48.384;8.984;2023-02-26T14:56:17;0.50;99.90
9371;DHT22;4725;48.384;8.984;2023-02-26T14:58:59;0.80;99.90
9371;DHT22;4725;48.384;8.984;2023-02-26T15:01:49;1.50;99.90
9371;DHT22;4725;48.384;8.984;2023-02-26T15:04:43;1.80;99.90
9371;DHT22;4725;48.384;8.984;2023-02-26T15:07:34;2.80;99.90
9371;DHT22;4725;48.384;8.984;2023-02-26T15:12:48;3.10;99.90
9371;DHT22;4725;48.384;8.984;2023-02-26T15:15:30;3.10;99.90
9371;DHT22;4725;48.384;8.984;2023-02-26T15:18:17;3.00;99.90
9371;DHT22;4725;48.384;8.984;2023-02-26T15:20:55;2.30;99.90
9371;DHT22;4725;48.384;8.984;2023-02-26T15:23:38;2.30;99.90
9371;DHT22;4725;48.384;8.984;2023-02-26T15:26:07;1.50;99.90
9371;DHT22;4725;48.384;8.984;2023-02-26T15:28:40;0.70;99.90
9371;DHT22;4725;48.384;8.984;2023-02-26T15:31:09;0.40;99.90
9371;DHT22;4725;48.384;8.984;2023-02-26T15:33:37;0.00;99.90
9371;DHT22;4725;48.384;8.984;2023-02-26T15:36:10;0.00;99.90
9371;DHT22;4725;48.384;8.984;2023-02-26T15:38:46;0.20;99.90
9371;DHT22;4725;48.384;8.984;2023-02-26T15:41:15;1.00;99.90
9371;DHT22;4725;48.384;8.984;2023-02-26T15:43:46;0.90;99.90
9371;DHT22;4725;48.384;8.984;2023-02-26T15:46:14;0.50;99.90
9371;DHT22;4725;48.384;8.984;2023-02-26T15:48:42;0.30;99.90
9371;DHT22;4725;48.384;8.984;2023-02-26T15:51:12;0.20;99.90
9371;DHT22;4725;48.384;8.984;2023-02-26T15:53:42;0.20;99.90
9371;DHT22;4725;48.384;8.984;2023-02-26T15:56:12;0.20;99.90
9371;DHT22;4725;48.384;8.984;2023-02-26T15:58:47;0.30;99.90
9371;DHT22;4725;48.384;8.984;2023-02-26T16:01:17;0.50;99.90
9371;DHT22;4725;48.384;8.984;2023-02-26T16:03:44;0.70;99.90
9371;DHT22;4725;48.384;8.984;2023-02-26T16:06:16;0.70;99.90
9371;DHT22;4725;48.384;8.984;2023-02-26T16:08:43;0.60;99.90
9371;DHT22;4725;48.384;8.984;2023-02-26T16:11:11;0.10;99.90
9371;DHT22;4725;48.384;8.984;2023-02-26T16:13:40;-0.10;99.90
9371;DHT22;4725;48.384;8.984;2023-02-26T16:16:12;-0.30;99.90
9371;DHT22;4725;48.384;8.984;2023-02-26T16:18:41;-0.70;99.90
9371;DHT22;4725;48.384;8.984;2023-02-26T16:21:10;-0.80;99.90
9371;DHT22;4725;48.384;8.984;2023-02-26T16:23:46;-0.80;99.90
9371;DHT22;4725;48.384;8.984;2023-02-26T16:26:20;-0.70;99.90
9371;DHT22;4725;48.384;8.984;2023-02-26T16:28:58;-0.50;99.90
9371;DHT22;4725;48.384;8.984;2023-02-26T16:31:26;-0.50;99.90
9371;DHT22;4725;48.384;8.984;2023-02-26T16:33:57;-0.50;99.90
9371;DHT22;4725;48.384;8.984;2023-02-26T16:36:27;-0.50;99.90
9371;DHT22;4725;48.384;8.984;2023-02-26T16:39:09;-0.60;99.90
9371;DHT22;4725;48.384;8.984;2023-02-26T16:41:39;-0.80;99.90
9371;DHT22;4725;48.384;8.984;2023-02-26T16:44:47;-0.90;99.90
9371;DHT22;4725;48.384;8.984;2023-02-26T16:47:16;-1.10;99.90
9371;DHT22;4725;48.384;8.984;2023-02-26T16:49:44;-1.30;99.90
9371;DHT22;4725;48.384;8.984;2023-02-26T16:52:19;-1.30;99.90
9371;DHT22;4725;48.384;8.984;2023-02-26T16:54:57;-1.30;99.90
9371;DHT22;4725;48.384;8.984;2023-02-26T16:57:29;-1.40;99.90
9371;DHT22;4725;48.384;8.984;2023-02-26T17:00:05;-1.40;99.90
9371;DHT22;4725;48.384;8.984;2023-02-26T17:02:36;-1.40;99.90
9371;DHT22;4725;48.384;8.984;2023-02-26T17:05:14;-1.40;99.90
9371;DHT22;4725;48.384;8.984;2023-02-26T17:07:47;-1.40;99.90
9371;DHT22;4725;48.384;8.984;2023-02-26T17:10:18;-1.40;99.90
9371;DHT22;4725;48.384;8.984;2023-02-26T17:12:49;-1.40;99.90
9371;DHT22;4725;48.384;8.984;2023-02-26T17:15:20;-1.50;99.90
9371;DHT22;4725;48.384;8.984;2023-02-26T17:17:51;-1.40;99.90
9371;DHT22;4725;48.384;8.984;2023-02-26T17:20:21;-1.40;99.90
9371;DHT22;4725;48.384;8.984;2023-02-26T17:22:49;-1.40;99.90
9371;DHT22;4725;48.384;8.984;2023-02-26T17:25:18;-1.50;99.90
9371;DHT22;4725;48.384;8.984;2023-02-26T17:27:46;-1.40;99.90
9371;DHT22;4725;48.384;8.984;2023-02-26T17:30:15;-1.40;99.90
9371;DHT22;4725;48.384;8.984;2023-02-26T17:32:46;-1.40;99.90
9371;DHT22;4725;48.384;8.984;2023-02-26T17:35:14;-1.40;99.90
9371;DHT22;4725;48.384;8.984;2023-02-26T17:40:17;-1.30;99.90
9371;DHT22;4725;48.384;8.984;2023-02-26T17:42:45;-1.20;99.90
9371;DHT22;4725;48.384;8.984;2023-02-26T17:45:13;-1.30;99.90
9371;DHT22;4725;48.384;8.984;2023-02-26T17:47:41;-1.30;99.90